sensor_id;sensor_type;location;lat;lon;timestamp;P1;durP1;ratioP1;P2;durP2;ratioP2
21721;SDS011;11023;48.274;7.794;2022-10-19T00:00:22;16.02;;;9.48;;
21721;SDS011;11023;48.274;7.794;2022-10-19T00:02:50;15.95;;;10.70;;
21721;SDS011;11023;48.274;7.794;2022-10-19T00:05:16;16.42;;;10.68;;
21721;SDS011;11023;48.274;7.794;2022-10-19T00:07:45;22.52;;;10.80;;
21721;SDS011;11023;48.274;7.794;2022-10-19T00:10:11;13.90;;;9.55;;
21721;SDS011;11023;48.274;7.794;2022-10-19T00:12:36;14.95;;;9.45;;
21721;SDS011;11023;48.274;7.794;2022-10-19T00:15:02;17.80;;;9.50;;
21721;SDS011;11023;48.274;7.794;2022-10-19T00:17:32;16.40;;;9.10;;
21721;SDS011;11023;48.274;7.794;2022-10-19T00:19:59;16.63;;;9.35;;
21721;SDS011;11023;48.274;7.794;2022-10-19T00:22:25;14.00;;;8.70;;
21721;SDS011;11023;48.274;7.794;2022-10-19T00:24:54;19.55;;;10.18;;
21721;SDS011;11023;48.274;7.794;2022-10-19T00:27:25;13.10;;;9.60;;
21721;SDS011;11023;48.274;7.794;2022-10-19T00:29:51;17.05;;;10.32;;
21721;SDS011;11023;48.274;7.794;2022-10-19T00:32:16;19.00;;;10.45;;
21721;SDS011;11023;48.274;7.794;2022-10-19T00:34:45;17.65;;;9.77;;
21721;SDS011;11023;48.274;7.794;2022-10-19T00:37:13;19.08;;;10.13;;
21721;SDS011;11023;48.274;7.794;2022-10-19T00:39:39;15.85;;;9.80;;
21721;SDS011;11023;48.274;7.794;2022-10-19T00:42:11;14.95;;;9.82;;
21721;SDS011;11023;48.274;7.794;2022-10-19T00:47:11;19.42;;;10.23;;
21721;SDS011;11023;48.274;7.794;2022-10-19T00:49:43;11.48;;;8.15;;
21721;SDS011;11023;48.274;7.794;2022-10-19T00:52:12;14.32;;;8.05;;
21721;SDS011;11023;48.274;7.794;2022-10-19T00:54:41;15.93;;;8.25;;
21721;SDS011;11023;48.274;7.794;2022-10-19T00:57:11;14.38;;;8.35;;
21721;SDS011;11023;48.274;7.794;2022-10-19T00:59:40;16.45;;;8.18;;
21721;SDS011;11023;48.274;7.794;2022-10-19T01:04:38;17.05;;;8.02;;
21721;SDS011;11023;48.274;7.794;2022-10-19T01:07:08;18.90;;;7.90;;
21721;SDS011;11023;48.274;7.794;2022-10-19T01:09:35;15.57;;;7.25;;
21721;SDS011;11023;48.274;7.794;2022-10-19T01:17:49;18.13;;;7.65;;
21721;SDS011;11023;48.274;7.794;2022-10-19T01:38:33;39.30;;;14.43;;
21721;SDS011;11023;48.274;7.794;2022-10-19T01:41:03;63.83;;;15.45;;
21721;SDS011;11023;48.274;7.794;2022-10-19T01:43:46;26.60;;;12.80;;
21721;SDS011;11023;48.274;7.794;2022-10-19T01:49:06;60.15;;;16.23;;
21721;SDS011;11023;48.274;7.794;2022-10-19T01:51:41;73.25;;;16.33;;
21721;SDS011;11023;48.274;7.794;2022-10-19T01:54:11;56.80;;;16.88;;
21721;SDS011;11023;48.274;7.794;2022-10-19T01:56:40;71.53;;;18.55;;
21721;SDS011;11023;48.274;7.794;2022-10-19T01:59:08;69.63;;;19.02;;
21721;SDS011;11023;48.274;7.794;2022-10-19T02:01:35;69.13;;;20.17;;
21721;SDS011;11023;48.274;7.794;2022-10-19T02:04:05;39.10;;;19.10;;
21721;SDS011;11023;48.274;7.794;2022-10-19T02:06:31;40.92;;;18.90;;
21721;SDS011;11023;48.274;7.794;2022-10-19T02:08:57;52.35;;;21.92;;
21721;SDS011;11023;48.274;7.794;2022-10-19T02:11:23;80.55;;;22.90;;
21721;SDS011;11023;48.274;7.794;2022-10-19T02:13:51;59.90;;;21.10;;
21721;SDS011;11023;48.274;7.794;2022-10-19T02:18:51;74.07;;;22.95;;
21721;SDS011;11023;48.274;7.794;2022-10-19T02:21:19;102.03;;;24.33;;
21721;SDS011;11023;48.274;7.794;2022-10-19T02:23:45;52.35;;;23.10;;
21721;SDS011;11023;48.274;7.794;2022-10-19T02:26:10;62.97;;;23.30;;
21721;SDS011;11023;48.274;7.794;2022-10-19T02:28:36;65.15;;;23.48;;
21721;SDS011;11023;48.274;7.794;2022-10-19T02:31:03;99.68;;;24.35;;
21721;SDS011;11023;48.274;7.794;2022-10-19T02:33:29;50.65;;;22.05;;
21721;SDS011;11023;48.274;7.794;2022-10-19T02:35:56;124.00;;;24.40;;
21721;SDS011;11023;48.274;7.794;2022-10-19T02:38:22;68.32;;;22.08;;
21721;SDS011;11023;48.274;7.794;2022-10-19T02:44:00;107.95;;;19.90;;
21721;SDS011;11023;48.274;7.794;2022-10-19T02:47:01;119.32;;;19.77;;
21721;SDS011;11023;48.274;7.794;2022-10-19T02:49:26;76.50;;;18.70;;
21721;SDS011;11023;48.274;7.794;2022-10-19T02:51:55;73.25;;;18.65;;
21721;SDS011;11023;48.274;7.794;2022-10-19T02:54:26;106.70;;;21.42;;
21721;SDS011;11023;48.274;7.794;2022-10-19T02:56:52;57.05;;;17.58;;
21721;SDS011;11023;48.274;7.794;2022-10-19T02:59:18;76.78;;;17.02;;
21721;SDS011;11023;48.274;7.794;2022-10-19T03:01:43;105.07;;;17.50;;
21721;SDS011;11023;48.274;7.794;2022-10-19T03:04:09;84.90;;;17.55;;
21721;SDS011;11023;48.274;7.794;2022-10-19T03:06:35;170.38;;;18.30;;
21721;SDS011;11023;48.274;7.794;2022-10-19T03:09:00;69.32;;;17.63;;
21721;SDS011;11023;48.274;7.794;2022-10-19T03:11:26;87.72;;;17.63;;
21721;SDS011;11023;48.274;7.794;2022-10-19T03:13:52;89.07;;;15.48;;
21721;SDS011;11023;48.274;7.794;2022-10-19T03:16:17;91.10;;;17.65;;
21721;SDS011;11023;48.274;7.794;2022-10-19T03:18:43;91.93;;;17.00;;
21721;SDS011;11023;48.274;7.794;2022-10-19T03:21:10;125.50;;;18.00;;
21721;SDS011;11023;48.274;7.794;2022-10-19T03:23:37;30.88;;;14.45;;
21721;SDS011;11023;48.274;7.794;2022-10-19T03:26:04;49.75;;;14.98;;
21721;SDS011;11023;48.274;7.794;2022-10-19T03:28:31;47.67;;;15.02;;
21721;SDS011;11023;48.274;7.794;2022-10-19T03:30:57;53.00;;;16.13;;
21721;SDS011;11023;48.274;7.794;2022-10-19T03:33:23;53.35;;;14.07;;
21721;SDS011;11023;48.274;7.794;2022-10-19T03:35:49;133.18;;;16.15;;
21721;SDS011;11023;48.274;7.794;2022-10-19T03:38:15;155.15;;;15.82;;
21721;SDS011;11023;48.274;7.794;2022-10-19T03:40:41;69.80;;;15.75;;
21721;SDS011;11023;48.274;7.794;2022-10-19T03:43:07;181.20;;;16.77;;
21721;SDS011;11023;48.274;7.794;2022-10-19T03:45:32;86.40;;;14.82;;
21721;SDS011;11023;48.274;7.794;2022-10-19T03:47:58;135.35;;;15.88;;
21721;SDS011;11023;48.274;7.794;2022-10-19T03:50:24;109.88;;;15.75;;
21721;SDS011;11023;48.274;7.794;2022-10-19T03:52:50;35.00;;;13.88;;
21721;SDS011;11023;48.274;7.794;2022-10-19T03:55:15;111.13;;;16.50;;
21721;SDS011;11023;48.274;7.794;2022-10-19T03:57:41;61.40;;;13.75;;
21721;SDS011;11023;48.274;7.794;2022-10-19T04:00:07;80.45;;;15.73;;
21721;SDS011;11023;48.274;7.794;2022-10-19T04:03:46;34.47;;;13.15;;
21721;SDS011;11023;48.274;7.794;2022-10-19T04:06:12;23.80;;;13.32;;
21721;SDS011;11023;48.274;7.794;2022-10-19T04:08:39;122.72;;;14.32;;
21721;SDS011;11023;48.274;7.794;2022-10-19T04:11:08;133.10;;;14.73;;
21721;SDS011;11023;48.274;7.794;2022-10-19T04:13:37;22.88;;;14.23;;
21721;SDS011;11023;48.274;7.794;2022-10-19T04:16:03;23.05;;;13.85;;
21721;SDS011;11023;48.274;7.794;2022-10-19T04:18:29;114.70;;;22.52;;
21721;SDS011;11023;48.274;7.794;2022-10-19T04:20:55;67.13;;;15.93;;
21721;SDS011;11023;48.274;7.794;2022-10-19T04:23:22;60.97;;;16.30;;
21721;SDS011;11023;48.274;7.794;2022-10-19T04:25:57;36.47;;;13.68;;
21721;SDS011;11023;48.274;7.794;2022-10-19T04:28:24;62.58;;;15.50;;
21721;SDS011;11023;48.274;7.794;2022-10-19T04:30:50;75.28;;;15.80;;
21721;SDS011;11023;48.274;7.794;2022-10-19T04:33:15;134.75;;;16.58;;
21721;SDS011;11023;48.274;7.794;2022-10-19T04:35:41;27.42;;;15.80;;
21721;SDS011;11023;48.274;7.794;2022-10-19T04:38:07;18.40;;;13.40;;
21721;SDS011;11023;48.274;7.794;2022-10-19T04:40:34;49.35;;;15.50;;
21721;SDS011;11023;48.274;7.794;2022-10-19T04:43:00;74.43;;;17.10;;
21721;SDS011;11023;48.274;7.794;2022-10-19T04:45:27;79.95;;;16.70;;
21721;SDS011;11023;48.274;7.794;2022-10-19T04:47:52;19.83;;;15.10;;
21721;SDS011;11023;48.274;7.794;2022-10-19T04:50:20;82.15;;;16.00;;
21721;SDS011;11023;48.274;7.794;2022-10-19T04:52:47;119.15;;;17.05;;
21721;SDS011;11023;48.274;7.794;2022-10-19T04:55:13;19.67;;;13.45;;
21721;SDS011;11023;48.274;7.794;2022-10-19T04:57:38;59.05;;;15.48;;
21721;SDS011;11023;48.274;7.794;2022-10-19T05:00:04;17.73;;;14.48;;
21721;SDS011;11023;48.274;7.794;2022-10-19T05:02:32;45.53;;;15.15;;
21721;SDS011;11023;48.274;7.794;2022-10-19T05:04:57;32.97;;;14.02;;
21721;SDS011;11023;48.274;7.794;2022-10-19T05:07:23;68.45;;;15.60;;
21721;SDS011;11023;48.274;7.794;2022-10-19T05:09:50;59.17;;;15.10;;
21721;SDS011;11023;48.274;7.794;2022-10-19T05:12:15;50.83;;;14.32;;
21721;SDS011;11023;48.274;7.794;2022-10-19T05:14:44;33.60;;;13.77;;
21721;SDS011;11023;48.274;7.794;2022-10-19T05:17:09;39.40;;;14.13;;
21721;SDS011;11023;48.274;7.794;2022-10-19T05:19:41;104.72;;;13.70;;
21721;SDS011;11023;48.274;7.794;2022-10-19T05:22:07;76.22;;;15.93;;
21721;SDS011;11023;48.274;7.794;2022-10-19T05:24:33;18.48;;;12.35;;
21721;SDS011;11023;48.274;7.794;2022-10-19T05:27:01;42.67;;;12.82;;
21721;SDS011;11023;48.274;7.794;2022-10-19T05:29:27;20.38;;;12.95;;
21721;SDS011;11023;48.274;7.794;2022-10-19T05:31:52;23.02;;;13.35;;
21721;SDS011;11023;48.274;7.794;2022-10-19T05:34:18;42.20;;;11.57;;
21721;SDS011;11023;48.274;7.794;2022-10-19T05:36:46;17.65;;;11.50;;
21721;SDS011;11023;48.274;7.794;2022-10-19T05:39:13;66.35;;;12.38;;
21721;SDS011;11023;48.274;7.794;2022-10-19T05:41:44;33.20;;;11.95;;
21721;SDS011;11023;48.274;7.794;2022-10-19T05:44:14;18.02;;;11.43;;
21721;SDS011;11023;48.274;7.794;2022-10-19T05:46:46;53.85;;;12.18;;
21721;SDS011;11023;48.274;7.794;2022-10-19T05:49:15;22.90;;;11.90;;
21721;SDS011;11023;48.274;7.794;2022-10-19T05:51:45;39.50;;;12.25;;
21721;SDS011;11023;48.274;7.794;2022-10-19T05:54:12;38.88;;;11.35;;
21721;SDS011;11023;48.274;7.794;2022-10-19T05:56:39;14.05;;;11.45;;
21721;SDS011;11023;48.274;7.794;2022-10-19T05:59:07;13.18;;;10.23;;
21721;SDS011;11023;48.274;7.794;2022-10-19T06:01:37;20.75;;;12.07;;
21721;SDS011;11023;48.274;7.794;2022-10-19T06:04:06;18.88;;;11.00;;
21721;SDS011;11023;48.274;7.794;2022-10-19T06:06:35;13.35;;;10.40;;
21721;SDS011;11023;48.274;7.794;2022-10-19T06:09:01;14.13;;;10.15;;
21721;SDS011;11023;48.274;7.794;2022-10-19T06:11:30;24.00;;;10.18;;
21721;SDS011;11023;48.274;7.794;2022-10-19T06:14:02;13.75;;;9.27;;
21721;SDS011;11023;48.274;7.794;2022-10-19T06:16:31;16.48;;;9.13;;
21721;SDS011;11023;48.274;7.794;2022-10-19T06:19:03;18.88;;;10.20;;
21721;SDS011;11023;48.274;7.794;2022-10-19T06:21:30;10.85;;;8.88;;
21721;SDS011;11023;48.274;7.794;2022-10-19T06:23:58;13.82;;;8.70;;
21721;SDS011;11023;48.274;7.794;2022-10-19T06:26:27;9.73;;;8.48;;
21721;SDS011;11023;48.274;7.794;2022-10-19T06:28:55;9.35;;;8.13;;
21721;SDS011;11023;48.274;7.794;2022-10-19T06:31:24;12.02;;;8.80;;
21721;SDS011;11023;48.274;7.794;2022-10-19T06:33:54;11.40;;;9.35;;
21721;SDS011;11023;48.274;7.794;2022-10-19T06:36:27;12.52;;;8.50;;
21721;SDS011;11023;48.274;7.794;2022-10-19T06:41:27;13.05;;;8.65;;
21721;SDS011;11023;48.274;7.794;2022-10-19T06:43:56;21.95;;;9.48;;
21721;SDS011;11023;48.274;7.794;2022-10-19T06:46:23;13.70;;;9.10;;
21721;SDS011;11023;48.274;7.794;2022-10-19T06:48:54;17.23;;;8.98;;
21721;SDS011;11023;48.274;7.794;2022-10-19T06:51:21;12.10;;;9.20;;
21721;SDS011;11023;48.274;7.794;2022-10-19T06:53:49;18.23;;;9.77;;
21721;SDS011;11023;48.274;7.794;2022-10-19T06:56:17;19.77;;;9.90;;
21721;SDS011;11023;48.274;7.794;2022-10-19T06:58:43;16.23;;;10.13;;
21721;SDS011;11023;48.274;7.794;2022-10-19T07:01:09;15.63;;;10.32;;
21721;SDS011;11023;48.274;7.794;2022-10-19T07:03:37;12.68;;;9.77;;
21721;SDS011;11023;48.274;7.794;2022-10-19T07:06:07;14.35;;;10.02;;
21721;SDS011;11023;48.274;7.794;2022-10-19T07:08:37;14.63;;;11.35;;
21721;SDS011;11023;48.274;7.794;2022-10-19T07:11:07;23.13;;;11.57;;
21721;SDS011;11023;48.274;7.794;2022-10-19T07:13:35;13.35;;;10.30;;
21721;SDS011;11023;48.274;7.794;2022-10-19T07:16:07;18.73;;;11.85;;
21721;SDS011;11023;48.274;7.794;2022-10-19T07:18:38;15.90;;;11.90;;
21721;SDS011;11023;48.274;7.794;2022-10-19T07:21:12;29.50;;;13.20;;
21721;SDS011;11023;48.274;7.794;2022-10-19T07:23:40;35.63;;;13.85;;
21721;SDS011;11023;48.274;7.794;2022-10-19T07:26:11;18.52;;;12.98;;
21721;SDS011;11023;48.274;7.794;2022-10-19T07:28:42;36.75;;;13.25;;
21721;SDS011;11023;48.274;7.794;2022-10-19T07:31:11;28.60;;;14.15;;
21721;SDS011;11023;48.274;7.794;2022-10-19T07:33:38;27.73;;;14.25;;
21721;SDS011;11023;48.274;7.794;2022-10-19T07:36:07;24.88;;;13.70;;
21721;SDS011;11023;48.274;7.794;2022-10-19T07:38:34;39.78;;;15.88;;
21721;SDS011;11023;48.274;7.794;2022-10-19T07:41:05;48.03;;;14.88;;
21721;SDS011;11023;48.274;7.794;2022-10-19T07:43:39;53.72;;;17.20;;
21721;SDS011;11023;48.274;7.794;2022-10-19T07:46:06;36.38;;;15.25;;
21721;SDS011;11023;48.274;7.794;2022-10-19T07:48:34;23.33;;;14.45;;
21721;SDS011;11023;48.274;7.794;2022-10-19T07:51:01;30.98;;;15.30;;
21721;SDS011;11023;48.274;7.794;2022-10-19T07:53:29;28.92;;;15.07;;
21721;SDS011;11023;48.274;7.794;2022-10-19T07:55:54;40.65;;;16.90;;
21721;SDS011;11023;48.274;7.794;2022-10-19T07:58:20;36.28;;;19.17;;
21721;SDS011;11023;48.274;7.794;2022-10-19T08:00:46;41.95;;;21.20;;
21721;SDS011;11023;48.274;7.794;2022-10-19T08:03:12;57.05;;;23.80;;
21721;SDS011;11023;48.274;7.794;2022-10-19T08:05:37;61.90;;;23.13;;
21721;SDS011;11023;48.274;7.794;2022-10-19T08:08:03;49.53;;;22.80;;
21721;SDS011;11023;48.274;7.794;2022-10-19T08:10:29;44.25;;;23.23;;
21721;SDS011;11023;48.274;7.794;2022-10-19T08:12:55;39.70;;;21.10;;
21721;SDS011;11023;48.274;7.794;2022-10-19T08:15:21;48.95;;;22.50;;
21721;SDS011;11023;48.274;7.794;2022-10-19T08:17:46;41.95;;;21.88;;
21721;SDS011;11023;48.274;7.794;2022-10-19T08:20:12;41.28;;;21.17;;
21721;SDS011;11023;48.274;7.794;2022-10-19T08:22:38;40.92;;;21.45;;
21721;SDS011;11023;48.274;7.794;2022-10-19T08:25:03;53.20;;;22.55;;
21721;SDS011;11023;48.274;7.794;2022-10-19T08:27:29;46.20;;;21.60;;
21721;SDS011;11023;48.274;7.794;2022-10-19T08:29:55;43.88;;;21.30;;
21721;SDS011;11023;48.274;7.794;2022-10-19T08:32:21;60.17;;;23.55;;
21721;SDS011;11023;48.274;7.794;2022-10-19T08:34:46;57.25;;;22.88;;
21721;SDS011;11023;48.274;7.794;2022-10-19T08:37:12;67.18;;;22.42;;
21721;SDS011;11023;48.274;7.794;2022-10-19T08:39:38;55.28;;;21.30;;
21721;SDS011;11023;48.274;7.794;2022-10-19T08:42:04;49.03;;;20.58;;
21721;SDS011;11023;48.274;7.794;2022-10-19T08:49:59;42.42;;;18.67;;
21721;SDS011;11023;48.274;7.794;2022-10-19T08:52:29;31.90;;;18.10;;
21721;SDS011;11023;48.274;7.794;2022-10-19T08:55:00;35.60;;;17.75;;
21721;SDS011;11023;48.274;7.794;2022-10-19T09:05:28;30.33;;;19.48;;
21721;SDS011;11023;48.274;7.794;2022-10-19T09:07:59;29.52;;;19.50;;
21721;SDS011;11023;48.274;7.794;2022-10-19T09:10:25;30.75;;;18.98;;
21721;SDS011;11023;48.274;7.794;2022-10-19T09:15:42;30.17;;;19.33;;
21721;SDS011;11023;48.274;7.794;2022-10-19T09:18:10;30.02;;;19.05;;
21721;SDS011;11023;48.274;7.794;2022-10-19T09:20:42;30.95;;;17.92;;
21721;SDS011;11023;48.274;7.794;2022-10-19T09:25:54;26.85;;;18.33;;
21721;SDS011;11023;48.274;7.794;2022-10-19T09:28:26;25.77;;;17.77;;
21721;SDS011;11023;48.274;7.794;2022-10-19T09:31:14;26.13;;;17.58;;
21721;SDS011;11023;48.274;7.794;2022-10-19T09:34:02;25.20;;;17.55;;
21721;SDS011;11023;48.274;7.794;2022-10-19T09:36:45;28.30;;;18.00;;
21721;SDS011;11023;48.274;7.794;2022-10-19T09:39:18;24.75;;;18.17;;
21721;SDS011;11023;48.274;7.794;2022-10-19T09:41:46;27.80;;;18.80;;
21721;SDS011;11023;48.274;7.794;2022-10-19T09:44:15;28.95;;;18.33;;
21721;SDS011;11023;48.274;7.794;2022-10-19T09:46:53;30.48;;;19.60;;
21721;SDS011;11023;48.274;7.794;2022-10-19T09:52:40;27.52;;;18.70;;
21721;SDS011;11023;48.274;7.794;2022-10-19T09:57:49;26.77;;;17.13;;
21721;SDS011;11023;48.274;7.794;2022-10-19T10:00:23;24.93;;;16.83;;
21721;SDS011;11023;48.274;7.794;2022-10-19T10:02:55;22.92;;;16.30;;
21721;SDS011;11023;48.274;7.794;2022-10-19T10:05:32;25.42;;;18.48;;
21721;SDS011;11023;48.274;7.794;2022-10-19T10:08:03;22.92;;;17.23;;
21721;SDS011;11023;48.274;7.794;2022-10-19T10:10:37;24.00;;;17.42;;
21721;SDS011;11023;48.274;7.794;2022-10-19T10:13:08;23.10;;;16.63;;
21721;SDS011;11023;48.274;7.794;2022-10-19T10:15:47;25.25;;;16.55;;
21721;SDS011;11023;48.274;7.794;2022-10-19T10:18:16;24.77;;;16.83;;
21721;SDS011;11023;48.274;7.794;2022-10-19T10:20:54;22.45;;;16.15;;
21721;SDS011;11023;48.274;7.794;2022-10-19T10:23:29;22.58;;;16.45;;
21721;SDS011;11023;48.274;7.794;2022-10-19T10:26:00;24.48;;;17.33;;
21721;SDS011;11023;48.274;7.794;2022-10-19T10:28:27;27.63;;;17.15;;
21721;SDS011;11023;48.274;7.794;2022-10-19T10:30:57;32.60;;;17.40;;
21721;SDS011;11023;48.274;7.794;2022-10-19T10:33:26;23.38;;;16.88;;
21721;SDS011;11023;48.274;7.794;2022-10-19T10:35:54;25.25;;;17.17;;
21721;SDS011;11023;48.274;7.794;2022-10-19T10:38:25;21.90;;;15.55;;
21721;SDS011;11023;48.274;7.794;2022-10-19T10:40:58;22.27;;;16.33;;
21721;SDS011;11023;48.274;7.794;2022-10-19T10:43:31;25.05;;;17.38;;
21721;SDS011;11023;48.274;7.794;2022-10-19T10:46:13;25.60;;;15.77;;
21721;SDS011;11023;48.274;7.794;2022-10-19T10:48:43;21.42;;;15.18;;
21721;SDS011;11023;48.274;7.794;2022-10-19T10:54:28;21.02;;;14.77;;
21721;SDS011;11023;48.274;7.794;2022-10-19T10:57:14;24.40;;;18.30;;
21721;SDS011;11023;48.274;7.794;2022-10-19T11:05:30;18.15;;;14.55;;
21721;SDS011;11023;48.274;7.794;2022-10-19T11:10:48;20.58;;;14.88;;
21721;SDS011;11023;48.274;7.794;2022-10-19T11:13:35;19.90;;;14.73;;
21721;SDS011;11023;48.274;7.794;2022-10-19T11:16:22;17.55;;;13.38;;
21721;SDS011;11023;48.274;7.794;2022-10-19T11:19:17;20.00;;;14.07;;
21721;SDS011;11023;48.274;7.794;2022-10-19T11:32:23;22.75;;;17.67;;
21721;SDS011;11023;48.274;7.794;2022-10-19T11:35:09;25.50;;;17.27;;
21721;SDS011;11023;48.274;7.794;2022-10-19T11:37:46;27.33;;;19.88;;
21721;SDS011;11023;48.274;7.794;2022-10-19T11:52:22;26.42;;;18.50;;
21721;SDS011;11023;48.274;7.794;2022-10-19T11:55:01;26.45;;;18.08;;
21721;SDS011;11023;48.274;7.794;2022-10-19T12:00:48;25.60;;;17.10;;
21721;SDS011;11023;48.274;7.794;2022-10-19T12:06:22;24.92;;;17.90;;
21721;SDS011;11023;48.274;7.794;2022-10-19T12:14:56;30.70;;;19.98;;
21721;SDS011;11023;48.274;7.794;2022-10-19T12:17:46;26.83;;;18.48;;
21721;SDS011;11023;48.274;7.794;2022-10-19T12:20:15;30.75;;;19.23;;
21721;SDS011;11023;48.274;7.794;2022-10-19T12:23:10;25.00;;;18.13;;
21721;SDS011;11023;48.274;7.794;2022-10-19T12:25:57;27.08;;;18.48;;
21721;SDS011;11023;48.274;7.794;2022-10-19T12:28:27;27.42;;;19.83;;
21721;SDS011;11023;48.274;7.794;2022-10-19T12:30:59;24.47;;;19.00;;
21721;SDS011;11023;48.274;7.794;2022-10-19T12:33:28;27.48;;;19.35;;
21721;SDS011;11023;48.274;7.794;2022-10-19T12:36:18;25.25;;;19.00;;
21721;SDS011;11023;48.274;7.794;2022-10-19T12:41:55;26.35;;;18.08;;
21721;SDS011;11023;48.274;7.794;2022-10-19T12:47:10;23.25;;;17.73;;
21721;SDS011;11023;48.274;7.794;2022-10-19T12:49:45;22.75;;;17.35;;
21721;SDS011;11023;48.274;7.794;2022-10-19T12:52:13;23.15;;;16.55;;
21721;SDS011;11023;48.274;7.794;2022-10-19T12:54:41;25.27;;;16.92;;
21721;SDS011;11023;48.274;7.794;2022-10-19T12:57:22;23.15;;;17.02;;
21721;SDS011;11023;48.274;7.794;2022-10-19T13:00:35;23.75;;;15.00;;
21721;SDS011;11023;48.274;7.794;2022-10-19T13:02:55;22.30;;;14.70;;
21721;SDS011;11023;48.274;7.794;2022-10-19T13:05:37;21.23;;;15.60;;
21721;SDS011;11023;48.274;7.794;2022-10-19T13:08:03;18.80;;;15.27;;
21721;SDS011;11023;48.274;7.794;2022-10-19T13:10:31;23.48;;;14.15;;
21721;SDS011;11023;48.274;7.794;2022-10-19T13:12:58;20.88;;;14.43;;
21721;SDS011;11023;48.274;7.794;2022-10-19T13:18:00;18.85;;;14.00;;
21721;SDS011;11023;48.274;7.794;2022-10-19T13:25:25;21.67;;;12.88;;
21721;SDS011;11023;48.274;7.794;2022-10-19T13:38:35;16.23;;;10.50;;
21721;SDS011;11023;48.274;7.794;2022-10-19T13:41:17;16.30;;;10.20;;
21721;SDS011;11023;48.274;7.794;2022-10-19T13:43:57;14.57;;;10.25;;
21721;SDS011;11023;48.274;7.794;2022-10-19T14:04:51;10.63;;;7.53;;
21721;SDS011;11023;48.274;7.794;2022-10-19T14:07:25;10.52;;;7.05;;
21721;SDS011;11023;48.274;7.794;2022-10-19T14:12:33;11.93;;;7.07;;
21721;SDS011;11023;48.274;7.794;2022-10-19T14:15:10;11.10;;;8.70;;
21721;SDS011;11023;48.274;7.794;2022-10-19T14:17:40;11.05;;;9.23;;
21721;SDS011;11023;48.274;7.794;2022-10-19T14:22:53;12.70;;;9.43;;
21721;SDS011;11023;48.274;7.794;2022-10-19T14:25:22;14.27;;;8.95;;
21721;SDS011;11023;48.274;7.794;2022-10-19T14:27:58;12.68;;;7.85;;
21721;SDS011;11023;48.274;7.794;2022-10-19T14:30:29;10.85;;;8.05;;
21721;SDS011;11023;48.274;7.794;2022-10-19T14:33:00;12.45;;;7.95;;
21721;SDS011;11023;48.274;7.794;2022-10-19T14:35:35;9.77;;;8.30;;
21721;SDS011;11023;48.274;7.794;2022-10-19T14:38:04;15.50;;;9.10;;
21721;SDS011;11023;48.274;7.794;2022-10-19T14:40:40;10.88;;;9.05;;
21721;SDS011;11023;48.274;7.794;2022-10-19T14:48:57;14.32;;;8.82;;
21721;SDS011;11023;48.274;7.794;2022-10-19T14:51:33;13.80;;;7.72;;
21721;SDS011;11023;48.274;7.794;2022-10-19T14:59:33;14.30;;;8.60;;
21721;SDS011;11023;48.274;7.794;2022-10-19T15:02:00;17.15;;;8.93;;
21721;SDS011;11023;48.274;7.794;2022-10-19T15:04:48;15.15;;;8.55;;
21721;SDS011;11023;48.274;7.794;2022-10-19T15:07:19;9.32;;;7.95;;
21721;SDS011;11023;48.274;7.794;2022-10-19T15:09:56;13.00;;;7.68;;
21721;SDS011;11023;48.274;7.794;2022-10-19T15:12:26;16.52;;;8.18;;
21721;SDS011;11023;48.274;7.794;2022-10-19T15:14:54;10.98;;;8.40;;
21721;SDS011;11023;48.274;7.794;2022-10-19T15:17:25;11.05;;;8.15;;
21721;SDS011;11023;48.274;7.794;2022-10-19T15:19:53;11.95;;;8.18;;
21721;SDS011;11023;48.274;7.794;2022-10-19T15:25:11;14.00;;;8.32;;
21721;SDS011;11023;48.274;7.794;2022-10-19T15:27:49;11.55;;;7.70;;
21721;SDS011;11023;48.274;7.794;2022-10-19T15:35:32;11.55;;;7.95;;
21721;SDS011;11023;48.274;7.794;2022-10-19T15:40:41;14.07;;;7.88;;
21721;SDS011;11023;48.274;7.794;2022-10-19T15:46:01;10.75;;;8.15;;
21721;SDS011;11023;48.274;7.794;2022-10-19T15:48:45;9.40;;;8.02;;
21721;SDS011;11023;48.274;7.794;2022-10-19T15:51:35;11.55;;;7.78;;
21721;SDS011;11023;48.274;7.794;2022-10-19T15:54:03;11.07;;;8.07;;
21721;SDS011;11023;48.274;7.794;2022-10-19T15:56:32;11.45;;;7.80;;
21721;SDS011;11023;48.274;7.794;2022-10-19T15:59:00;9.70;;;7.80;;
21721;SDS011;11023;48.274;7.794;2022-10-19T16:01:29;10.18;;;7.22;;
21721;SDS011;11023;48.274;7.794;2022-10-19T16:03:55;16.15;;;7.70;;
21721;SDS011;11023;48.274;7.794;2022-10-19T16:06:22;12.23;;;9.10;;
21721;SDS011;11023;48.274;7.794;2022-10-19T16:08:49;13.15;;;8.60;;
21721;SDS011;11023;48.274;7.794;2022-10-19T16:11:16;11.60;;;9.98;;
21721;SDS011;11023;48.274;7.794;2022-10-19T16:13:44;13.73;;;11.32;;
21721;SDS011;11023;48.274;7.794;2022-10-19T16:16:15;15.85;;;11.30;;
21721;SDS011;11023;48.274;7.794;2022-10-19T16:18:46;16.08;;;11.32;;
21721;SDS011;11023;48.274;7.794;2022-10-19T16:21:12;16.95;;;11.95;;
21721;SDS011;11023;48.274;7.794;2022-10-19T16:23:38;15.50;;;10.40;;
21721;SDS011;11023;48.274;7.794;2022-10-19T16:26:04;16.60;;;11.23;;
21721;SDS011;11023;48.274;7.794;2022-10-19T16:28:30;22.73;;;12.18;;
21721;SDS011;11023;48.274;7.794;2022-10-19T16:30:56;15.68;;;12.77;;
21721;SDS011;11023;48.274;7.794;2022-10-19T16:33:22;16.08;;;11.95;;
21721;SDS011;11023;48.274;7.794;2022-10-19T16:35:48;14.88;;;11.40;;
21721;SDS011;11023;48.274;7.794;2022-10-19T16:38:13;21.10;;;13.32;;
21721;SDS011;11023;48.274;7.794;2022-10-19T16:40:39;22.48;;;13.23;;
21721;SDS011;11023;48.274;7.794;2022-10-19T16:43:05;17.60;;;14.00;;
21721;SDS011;11023;48.274;7.794;2022-10-19T16:45:30;24.63;;;13.50;;
21721;SDS011;11023;48.274;7.794;2022-10-19T16:47:56;20.95;;;13.25;;
21721;SDS011;11023;48.274;7.794;2022-10-19T16:50:22;18.40;;;13.05;;
21721;SDS011;11023;48.274;7.794;2022-10-19T16:53:09;16.85;;;13.40;;
21721;SDS011;11023;48.274;7.794;2022-10-19T16:55:35;18.10;;;13.02;;
21721;SDS011;11023;48.274;7.794;2022-10-19T16:58:01;20.02;;;13.73;;
21721;SDS011;11023;48.274;7.794;2022-10-19T17:00:28;17.42;;;14.57;;
21721;SDS011;11023;48.274;7.794;2022-10-19T17:02:54;18.98;;;14.63;;
21721;SDS011;11023;48.274;7.794;2022-10-19T17:05:19;16.85;;;14.60;;
21721;SDS011;11023;48.274;7.794;2022-10-19T17:07:46;14.13;;;12.45;;
21721;SDS011;11023;48.274;7.794;2022-10-19T17:10:12;21.90;;;15.98;;
21721;SDS011;11023;48.274;7.794;2022-10-19T17:12:40;16.48;;;12.63;;
21721;SDS011;11023;48.274;7.794;2022-10-19T17:15:07;17.05;;;13.35;;
21721;SDS011;11023;48.274;7.794;2022-10-19T17:17:33;23.17;;;16.73;;
21721;SDS011;11023;48.274;7.794;2022-10-19T17:19:59;19.58;;;15.90;;
21721;SDS011;11023;48.274;7.794;2022-10-19T17:22:24;17.63;;;15.18;;
21721;SDS011;11023;48.274;7.794;2022-10-19T17:24:50;19.63;;;16.77;;
21721;SDS011;11023;48.274;7.794;2022-10-19T17:27:18;21.70;;;16.30;;
21721;SDS011;11023;48.274;7.794;2022-10-19T17:29:43;19.23;;;15.95;;
21721;SDS011;11023;48.274;7.794;2022-10-19T17:32:09;22.73;;;16.58;;
21721;SDS011;11023;48.274;7.794;2022-10-19T17:34:36;25.60;;;17.00;;
21721;SDS011;11023;48.274;7.794;2022-10-19T17:37:01;20.67;;;16.05;;
21721;SDS011;11023;48.274;7.794;2022-10-19T17:39:27;25.50;;;18.13;;
21721;SDS011;11023;48.274;7.794;2022-10-19T17:41:53;20.48;;;16.45;;